sensor_id;sensor_type;location;lat;lon;timestamp;P1;durP1;ratioP1;P2;durP2;ratioP2
76165;SDS011;65085;46.718;20.136;2022-12-18T00:02:52;52.40;;;16.27;;
76165;SDS011;65085;46.718;20.136;2022-12-18T00:05:56;54.75;;;17.25;;
76165;SDS011;65085;46.718;20.136;2022-12-18T00:08:59;52.97;;;16.70;;
76165;SDS011;65085;46.718;20.136;2022-12-18T00:12:03;52.83;;;16.37;;
76165;SDS011;65085;46.718;20.136;2022-12-18T00:15:16;58.05;;;18.58;;
76165;SDS011;65085;46.718;20.136;2022-12-18T00:18:19;57.92;;;18.67;;
76165;SDS011;65085;46.718;20.136;2022-12-18T00:21:23;54.33;;;17.67;;
76165;SDS011;65085;46.718;20.136;2022-12-18T00:24:25;54.75;;;17.73;;
76165;SDS011;65085;46.718;20.136;2022-12-18T00:27:28;53.13;;;17.50;;
76165;SDS011;65085;46.718;20.136;2022-12-18T00:30:31;53.45;;;17.77;;
76165;SDS011;65085;46.718;20.136;2022-12-18T00:33:34;61.53;;;19.50;;
76165;SDS011;65085;46.718;20.136;2022-12-18T00:36:39;59.60;;;18.40;;
76165;SDS011;65085;46.718;20.136;2022-12-18T00:39:43;56.60;;;18.75;;
76165;SDS011;65085;46.718;20.136;2022-12-18T00:42:45;53.57;;;17.60;;
76165;SDS011;65085;46.718;20.136;2022-12-18T00:46:00;62.78;;;19.02;;
76165;SDS011;65085;46.718;20.136;2022-12-18T00:49:03;59.42;;;18.42;;
76165;SDS011;65085;46.718;20.136;2022-12-18T00:52:07;57.28;;;18.02;;
76165;SDS011;65085;46.718;20.136;2022-12-18T00:55:10;50.08;;;18.15;;
76165;SDS011;65085;46.718;20.136;2022-12-18T00:58:13;59.23;;;17.77;;
76165;SDS011;65085;46.718;20.136;2022-12-18T01:01:18;64.95;;;19.33;;
76165;SDS011;65085;46.718;20.136;2022-12-18T01:04:21;55.97;;;18.33;;
76165;SDS011;65085;46.718;20.136;2022-12-18T01:07:25;60.63;;;18.77;;
76165;SDS011;65085;46.718;20.136;2022-12-18T01:10:27;69.22;;;20.55;;
76165;SDS011;65085;46.718;20.136;2022-12-18T01:13:32;65.80;;;20.50;;
76165;SDS011;65085;46.718;20.136;2022-12-18T01:16:34;55.25;;;19.65;;
76165;SDS011;65085;46.718;20.136;2022-12-18T01:19:39;62.88;;;19.73;;
76165;SDS011;65085;46.718;20.136;2022-12-18T01:22:46;62.65;;;20.15;;
76165;SDS011;65085;46.718;20.136;2022-12-18T01:25:48;61.30;;;19.88;;
76165;SDS011;65085;46.718;20.136;2022-12-18T01:28:51;59.93;;;19.63;;
76165;SDS011;65085;46.718;20.136;2022-12-18T01:31:57;56.85;;;18.42;;
76165;SDS011;65085;46.718;20.136;2022-12-18T01:35:00;57.70;;;17.50;;
76165;SDS011;65085;46.718;20.136;2022-12-18T01:38:04;53.90;;;17.88;;
76165;SDS011;65085;46.718;20.136;2022-12-18T01:41:07;56.53;;;18.55;;
76165;SDS011;65085;46.718;20.136;2022-12-18T01:47:47;50.65;;;17.38;;
76165;SDS011;65085;46.718;20.136;2022-12-18T01:50:51;58.85;;;17.77;;
76165;SDS011;65085;46.718;20.136;2022-12-18T01:53:55;54.70;;;17.25;;
76165;SDS011;65085;46.718;20.136;2022-12-18T01:56:59;49.72;;;17.23;;
76165;SDS011;65085;46.718;20.136;2022-12-18T02:00:04;57.53;;;17.23;;
76165;SDS011;65085;46.718;20.136;2022-12-18T02:03:15;52.42;;;16.77;;
76165;SDS011;65085;46.718;20.136;2022-12-18T02:06:21;52.30;;;17.73;;
76165;SDS011;65085;46.718;20.136;2022-12-18T02:09:31;59.63;;;17.92;;
76165;SDS011;65085;46.718;20.136;2022-12-18T02:12:42;54.50;;;18.40;;
76165;SDS011;65085;46.718;20.136;2022-12-18T02:15:50;55.00;;;18.03;;
76165;SDS011;65085;46.718;20.136;2022-12-18T02:19:00;57.97;;;17.63;;
76165;SDS011;65085;46.718;20.136;2022-12-18T02:22:12;58.78;;;17.90;;
76165;SDS011;65085;46.718;20.136;2022-12-18T02:25:28;50.10;;;16.40;;
76165;SDS011;65085;46.718;20.136;2022-12-18T02:28:45;55.15;;;17.65;;
76165;SDS011;65085;46.718;20.136;2022-12-18T02:31:51;49.97;;;17.23;;
76165;SDS011;65085;46.718;20.136;2022-12-18T02:34:56;50.65;;;17.00;;
76165;SDS011;65085;46.718;20.136;2022-12-18T02:38:03;61.72;;;18.00;;
76165;SDS011;65085;46.718;20.136;2022-12-18T02:41:10;55.17;;;18.98;;
76165;SDS011;65085;46.718;20.136;2022-12-18T02:44:15;55.00;;;17.27;;
76165;SDS011;65085;46.718;20.136;2022-12-18T02:47:18;52.90;;;18.27;;
76165;SDS011;65085;46.718;20.136;2022-12-18T02:50:26;51.60;;;17.13;;
76165;SDS011;65085;46.718;20.136;2022-12-18T02:53:35;54.22;;;17.55;;
76165;SDS011;65085;46.718;20.136;2022-12-18T02:56:44;56.72;;;17.95;;
76165;SDS011;65085;46.718;20.136;2022-12-18T02:59:58;59.58;;;17.85;;
76165;SDS011;65085;46.718;20.136;2022-12-18T03:03:05;56.67;;;17.37;;
76165;SDS011;65085;46.718;20.136;2022-12-18T03:06:16;61.17;;;17.92;;
76165;SDS011;65085;46.718;20.136;2022-12-18T03:09:27;59.95;;;19.67;;
76165;SDS011;65085;46.718;20.136;2022-12-18T03:12:34;57.95;;;18.48;;
76165;SDS011;65085;46.718;20.136;2022-12-18T03:15:41;62.53;;;18.45;;
76165;SDS011;65085;46.718;20.136;2022-12-18T03:18:49;54.40;;;17.43;;
76165;SDS011;65085;46.718;20.136;2022-12-18T03:21:56;55.17;;;18.42;;
76165;SDS011;65085;46.718;20.136;2022-12-18T03:25:01;61.17;;;18.80;;
76165;SDS011;65085;46.718;20.136;2022-12-18T03:28:07;61.63;;;19.92;;
76165;SDS011;65085;46.718;20.136;2022-12-18T03:31:17;57.55;;;19.27;;
76165;SDS011;65085;46.718;20.136;2022-12-18T03:34:26;60.63;;;19.13;;
76165;SDS011;65085;46.718;20.136;2022-12-18T03:37:36;60.80;;;18.73;;
76165;SDS011;65085;46.718;20.136;2022-12-18T03:40:49;61.40;;;19.02;;
76165;SDS011;65085;46.718;20.136;2022-12-18T03:44:00;53.97;;;16.65;;
76165;SDS011;65085;46.718;20.136;2022-12-18T03:47:12;55.03;;;17.35;;
76165;SDS011;65085;46.718;20.136;2022-12-18T03:50:19;57.33;;;17.37;;
76165;SDS011;65085;46.718;20.136;2022-12-18T03:53:32;53.92;;;17.02;;
76165;SDS011;65085;46.718;20.136;2022-12-18T03:56:44;61.63;;;17.80;;
76165;SDS011;65085;46.718;20.136;2022-12-18T03:59:51;55.53;;;16.83;;
76165;SDS011;65085;46.718;20.136;2022-12-18T04:03:04;56.75;;;17.35;;
76165;SDS011;65085;46.718;20.136;2022-12-18T04:06:16;56.63;;;16.77;;
76165;SDS011;65085;46.718;20.136;2022-12-18T04:09:20;67.85;;;19.33;;
76165;SDS011;65085;46.718;20.136;2022-12-18T04:12:24;57.28;;;18.23;;
76165;SDS011;65085;46.718;20.136;2022-12-18T04:15:27;58.90;;;18.23;;
76165;SDS011;65085;46.718;20.136;2022-12-18T04:18:32;62.70;;;18.45;;
76165;SDS011;65085;46.718;20.136;2022-12-18T04:21:36;59.73;;;18.13;;
76165;SDS011;65085;46.718;20.136;2022-12-18T04:24:39;62.03;;;19.40;;
76165;SDS011;65085;46.718;20.136;2022-12-18T04:27:49;62.20;;;17.83;;
76165;SDS011;65085;46.718;20.136;2022-12-18T04:30:52;58.97;;;18.80;;
76165;SDS011;65085;46.718;20.136;2022-12-18T04:33:58;62.50;;;18.50;;
76165;SDS011;65085;46.718;20.136;2022-12-18T04:37:00;56.77;;;18.63;;
76165;SDS011;65085;46.718;20.136;2022-12-18T04:40:04;63.00;;;19.38;;
76165;SDS011;65085;46.718;20.136;2022-12-18T04:43:14;61.03;;;18.38;;
76165;SDS011;65085;46.718;20.136;2022-12-18T04:46:17;58.47;;;17.63;;
76165;SDS011;65085;46.718;20.136;2022-12-18T04:49:21;56.50;;;17.45;;
76165;SDS011;65085;46.718;20.136;2022-12-18T04:52:23;59.00;;;17.70;;
76165;SDS011;65085;46.718;20.136;2022-12-18T04:55:26;62.70;;;17.75;;
76165;SDS011;65085;46.718;20.136;2022-12-18T04:58:29;54.83;;;17.05;;
76165;SDS011;65085;46.718;20.136;2022-12-18T05:01:33;53.40;;;16.67;;
76165;SDS011;65085;46.718;20.136;2022-12-18T05:04:39;54.10;;;17.88;;
76165;SDS011;65085;46.718;20.136;2022-12-18T05:07:41;66.70;;;20.27;;
76165;SDS011;65085;46.718;20.136;2022-12-18T05:10:44;72.30;;;23.92;;
76165;SDS011;65085;46.718;20.136;2022-12-18T05:13:47;76.93;;;24.00;;
76165;SDS011;65085;46.718;20.136;2022-12-18T05:16:49;82.75;;;24.60;;
76165;SDS011;65085;46.718;20.136;2022-12-18T05:19:53;82.72;;;25.00;;
76165;SDS011;65085;46.718;20.136;2022-12-18T05:22:56;75.87;;;24.80;;
76165;SDS011;65085;46.718;20.136;2022-12-18T05:25:59;85.32;;;24.60;;
76165;SDS011;65085;46.718;20.136;2022-12-18T05:29:03;80.40;;;23.30;;
76165;SDS011;65085;46.718;20.136;2022-12-18T05:32:05;79.45;;;23.90;;
76165;SDS011;65085;46.718;20.136;2022-12-18T05:35:10;75.10;;;23.10;;
76165;SDS011;65085;46.718;20.136;2022-12-18T05:38:13;67.93;;;21.00;;
76165;SDS011;65085;46.718;20.136;2022-12-18T05:41:16;77.57;;;22.67;;
76165;SDS011;65085;46.718;20.136;2022-12-18T05:44:18;74.85;;;22.15;;
76165;SDS011;65085;46.718;20.136;2022-12-18T05:47:21;71.25;;;21.00;;
76165;SDS011;65085;46.718;20.136;2022-12-18T05:50:25;64.50;;;20.63;;
76165;SDS011;65085;46.718;20.136;2022-12-18T05:53:27;69.63;;;21.43;;
76165;SDS011;65085;46.718;20.136;2022-12-18T05:56:30;67.45;;;22.58;;
76165;SDS011;65085;46.718;20.136;2022-12-18T05:59:33;75.30;;;22.75;;
76165;SDS011;65085;46.718;20.136;2022-12-18T06:02:35;71.47;;;21.98;;
76165;SDS011;65085;46.718;20.136;2022-12-18T06:05:40;75.35;;;24.20;;
76165;SDS011;65085;46.718;20.136;2022-12-18T06:08:44;76.20;;;23.80;;
76165;SDS011;65085;46.718;20.136;2022-12-18T06:11:48;80.88;;;25.60;;
76165;SDS011;65085;46.718;20.136;2022-12-18T06:14:50;80.38;;;24.10;;
76165;SDS011;65085;46.718;20.136;2022-12-18T06:17:53;77.90;;;23.98;;
76165;SDS011;65085;46.718;20.136;2022-12-18T06:20:57;76.93;;;23.73;;
76165;SDS011;65085;46.718;20.136;2022-12-18T06:24:00;76.57;;;24.67;;
76165;SDS011;65085;46.718;20.136;2022-12-18T06:27:03;74.38;;;23.45;;
76165;SDS011;65085;46.718;20.136;2022-12-18T06:30:06;78.82;;;25.75;;
76165;SDS011;65085;46.718;20.136;2022-12-18T06:33:09;90.82;;;28.60;;
76165;SDS011;65085;46.718;20.136;2022-12-18T06:36:13;105.85;;;34.47;;
76165;SDS011;65085;46.718;20.136;2022-12-18T06:39:16;104.23;;;34.57;;
76165;SDS011;65085;46.718;20.136;2022-12-18T06:42:19;112.40;;;36.45;;
76165;SDS011;65085;46.718;20.136;2022-12-18T06:45:21;119.28;;;38.75;;
76165;SDS011;65085;46.718;20.136;2022-12-18T06:48:24;115.20;;;39.47;;
76165;SDS011;65085;46.718;20.136;2022-12-18T06:51:28;159.77;;;47.67;;
76165;SDS011;65085;46.718;20.136;2022-12-18T06:54:31;162.27;;;48.67;;
76165;SDS011;65085;46.718;20.136;2022-12-18T06:57:34;165.88;;;47.92;;
76165;SDS011;65085;46.718;20.136;2022-12-18T07:00:36;161.38;;;47.65;;
76165;SDS011;65085;46.718;20.136;2022-12-18T07:03:39;143.73;;;44.90;;
76165;SDS011;65085;46.718;20.136;2022-12-18T07:06:45;113.70;;;39.20;;
76165;SDS011;65085;46.718;20.136;2022-12-18T07:09:49;111.67;;;39.73;;
76165;SDS011;65085;46.718;20.136;2022-12-18T07:12:51;109.75;;;39.38;;
76165;SDS011;65085;46.718;20.136;2022-12-18T07:15:54;109.70;;;37.88;;
76165;SDS011;65085;46.718;20.136;2022-12-18T07:18:57;98.10;;;35.80;;
76165;SDS011;65085;46.718;20.136;2022-12-18T07:22:00;121.53;;;38.95;;
76165;SDS011;65085;46.718;20.136;2022-12-18T07:25:04;123.57;;;40.53;;
76165;SDS011;65085;46.718;20.136;2022-12-18T07:28:08;119.78;;;40.38;;
76165;SDS011;65085;46.718;20.136;2022-12-18T07:31:19;133.30;;;44.13;;
76165;SDS011;65085;46.718;20.136;2022-12-18T07:34:23;159.48;;;53.78;;
76165;SDS011;65085;46.718;20.136;2022-12-18T07:37:28;180.48;;;56.92;;
76165;SDS011;65085;46.718;20.136;2022-12-18T07:40:31;169.43;;;55.87;;
76165;SDS011;65085;46.718;20.136;2022-12-18T07:43:34;174.85;;;62.05;;
76165;SDS011;65085;46.718;20.136;2022-12-18T07:46:38;165.70;;;57.97;;
76165;SDS011;65085;46.718;20.136;2022-12-18T07:49:41;155.02;;;51.88;;
76165;SDS011;65085;46.718;20.136;2022-12-18T07:52:45;150.35;;;51.33;;
76165;SDS011;65085;46.718;20.136;2022-12-18T07:55:47;134.93;;;46.07;;
76165;SDS011;65085;46.718;20.136;2022-12-18T07:59:10;98.13;;;35.45;;
76165;SDS011;65085;46.718;20.136;2022-12-18T08:02:13;88.03;;;32.08;;
76165;SDS011;65085;46.718;20.136;2022-12-18T08:05:15;82.10;;;28.52;;
76165;SDS011;65085;46.718;20.136;2022-12-18T08:08:20;80.22;;;29.70;;
76165;SDS011;65085;46.718;20.136;2022-12-18T08:11:23;100.83;;;31.63;;
76165;SDS011;65085;46.718;20.136;2022-12-18T08:14:27;93.65;;;31.20;;
76165;SDS011;65085;46.718;20.136;2022-12-18T08:17:30;90.43;;;32.85;;
76165;SDS011;65085;46.718;20.136;2022-12-18T08:20:33;95.05;;;35.10;;
76165;SDS011;65085;46.718;20.136;2022-12-18T08:23:37;94.18;;;36.65;;
76165;SDS011;65085;46.718;20.136;2022-12-18T08:26:44;92.60;;;35.63;;
76165;SDS011;65085;46.718;20.136;2022-12-18T08:30:07;83.45;;;32.85;;
76165;SDS011;65085;46.718;20.136;2022-12-18T08:33:11;85.30;;;32.13;;
76165;SDS011;65085;46.718;20.136;2022-12-18T08:36:14;89.22;;;32.13;;
76165;SDS011;65085;46.718;20.136;2022-12-18T08:39:18;101.38;;;34.15;;
76165;SDS011;65085;46.718;20.136;2022-12-18T08:42:20;84.20;;;31.13;;
76165;SDS011;65085;46.718;20.136;2022-12-18T08:45:41;74.28;;;28.42;;
76165;SDS011;65085;46.718;20.136;2022-12-18T08:48:44;66.72;;;25.58;;
76165;SDS011;65085;46.718;20.136;2022-12-18T08:51:47;67.15;;;24.60;;
76165;SDS011;65085;46.718;20.136;2022-12-18T08:54:51;60.67;;;22.73;;
76165;SDS011;65085;46.718;20.136;2022-12-18T08:57:54;55.10;;;22.10;;
76165;SDS011;65085;46.718;20.136;2022-12-18T09:00:59;68.65;;;24.90;;
76165;SDS011;65085;46.718;20.136;2022-12-18T09:04:02;57.10;;;22.65;;
76165;SDS011;65085;46.718;20.136;2022-12-18T09:07:07;60.95;;;23.88;;
76165;SDS011;65085;46.718;20.136;2022-12-18T09:10:11;56.22;;;20.70;;
76165;SDS011;65085;46.718;20.136;2022-12-18T09:13:15;52.87;;;20.40;;
76165;SDS011;65085;46.718;20.136;2022-12-18T09:16:18;63.53;;;23.42;;
76165;SDS011;65085;46.718;20.136;2022-12-18T09:19:22;60.90;;;22.40;;
76165;SDS011;65085;46.718;20.136;2022-12-18T09:22:24;60.35;;;22.55;;
76165;SDS011;65085;46.718;20.136;2022-12-18T09:25:29;64.45;;;22.38;;
76165;SDS011;65085;46.718;20.136;2022-12-18T09:28:38;71.07;;;24.83;;
76165;SDS011;65085;46.718;20.136;2022-12-18T09:31:41;62.13;;;24.17;;
76165;SDS011;65085;46.718;20.136;2022-12-18T09:34:43;64.07;;;23.92;;
76165;SDS011;65085;46.718;20.136;2022-12-18T09:37:46;65.80;;;24.63;;
76165;SDS011;65085;46.718;20.136;2022-12-18T09:40:51;67.80;;;25.17;;
76165;SDS011;65085;46.718;20.136;2022-12-18T09:43:55;70.90;;;23.53;;
76165;SDS011;65085;46.718;20.136;2022-12-18T09:47:08;66.88;;;24.48;;
76165;SDS011;65085;46.718;20.136;2022-12-18T09:50:17;64.75;;;25.15;;
76165;SDS011;65085;46.718;20.136;2022-12-18T09:53:28;68.32;;;24.40;;
76165;SDS011;65085;46.718;20.136;2022-12-18T09:56:36;64.40;;;24.70;;
76165;SDS011;65085;46.718;20.136;2022-12-18T09:59:43;64.50;;;24.00;;
76165;SDS011;65085;46.718;20.136;2022-12-18T10:02:51;60.72;;;24.35;;
76165;SDS011;65085;46.718;20.136;2022-12-18T10:05:58;61.30;;;24.55;;
76165;SDS011;65085;46.718;20.136;2022-12-18T10:09:09;59.97;;;24.38;;
76165;SDS011;65085;46.718;20.136;2022-12-18T10:12:23;71.93;;;27.98;;
76165;SDS011;65085;46.718;20.136;2022-12-18T10:15:33;52.10;;;21.63;;
76165;SDS011;65085;46.718;20.136;2022-12-18T10:18:46;53.20;;;22.85;;
76165;SDS011;65085;46.718;20.136;2022-12-18T10:22:09;50.20;;;22.05;;
76165;SDS011;65085;46.718;20.136;2022-12-18T10:25:21;52.05;;;21.13;;
76165;SDS011;65085;46.718;20.136;2022-12-18T10:28:28;52.55;;;21.40;;
76165;SDS011;65085;46.718;20.136;2022-12-18T10:31:32;49.43;;;21.30;;
76165;SDS011;65085;46.718;20.136;2022-12-18T10:34:35;51.05;;;21.90;;
76165;SDS011;65085;46.718;20.136;2022-12-18T10:37:37;50.78;;;22.73;;
76165;SDS011;65085;46.718;20.136;2022-12-18T10:41:22;44.95;;;20.65;;
76165;SDS011;65085;46.718;20.136;2022-12-18T10:44:32;55.05;;;22.25;;
76165;SDS011;65085;46.718;20.136;2022-12-18T10:47:34;48.90;;;20.17;;
76165;SDS011;65085;46.718;20.136;2022-12-18T10:50:37;49.13;;;21.52;;
76165;SDS011;65085;46.718;20.136;2022-12-18T10:54:00;51.92;;;22.70;;
76165;SDS011;65085;46.718;20.136;2022-12-18T10:57:14;55.72;;;23.40;;
76165;SDS011;65085;46.718;20.136;2022-12-18T11:00:27;59.33;;;22.83;;
76165;SDS011;65085;46.718;20.136;2022-12-18T11:03:33;49.93;;;21.27;;
76165;SDS011;65085;46.718;20.136;2022-12-18T11:06:52;60.05;;;24.35;;
76165;SDS011;65085;46.718;20.136;2022-12-18T11:09:59;56.67;;;23.60;;
76165;SDS011;65085;46.718;20.136;2022-12-18T11:13:14;53.28;;;21.17;;
76165;SDS011;65085;46.718;20.136;2022-12-18T11:16:22;50.80;;;20.52;;
76165;SDS011;65085;46.718;20.136;2022-12-18T11:19:28;45.20;;;20.60;;
76165;SDS011;65085;46.718;20.136;2022-12-18T11:22:35;50.65;;;21.55;;
76165;SDS011;65085;46.718;20.136;2022-12-18T11:25:40;53.00;;;21.75;;
76165;SDS011;65085;46.718;20.136;2022-12-18T11:29:07;47.78;;;20.80;;
76165;SDS011;65085;46.718;20.136;2022-12-18T11:32:24;40.20;;;17.95;;
76165;SDS011;65085;46.718;20.136;2022-12-18T11:35:39;40.83;;;18.83;;
76165;SDS011;65085;46.718;20.136;2022-12-18T11:38:49;43.53;;;19.63;;
76165;SDS011;65085;46.718;20.136;2022-12-18T11:41:56;42.35;;;17.48;;
76165;SDS011;65085;46.718;20.136;2022-12-18T11:45:23;53.45;;;18.98;;
76165;SDS011;65085;46.718;20.136;2022-12-18T11:48:32;46.80;;;20.23;;
76165;SDS011;65085;46.718;20.136;2022-12-18T11:51:41;41.87;;;19.43;;
76165;SDS011;65085;46.718;20.136;2022-12-18T11:54:50;46.08;;;19.92;;
76165;SDS011;65085;46.718;20.136;2022-12-18T11:57:56;50.80;;;21.33;;
76165;SDS011;65085;46.718;20.136;2022-12-18T12:01:08;47.75;;;20.05;;
76165;SDS011;65085;46.718;20.136;2022-12-18T12:04:27;47.15;;;19.48;;
76165;SDS011;65085;46.718;20.136;2022-12-18T12:07:43;43.40;;;19.20;;
76165;SDS011;65085;46.718;20.136;2022-12-18T12:10:55;46.88;;;19.00;;
76165;SDS011;65085;46.718;20.136;2022-12-18T12:14:27;45.65;;;19.73;;
76165;SDS011;65085;46.718;20.136;2022-12-18T12:17:44;41.85;;;18.23;;
76165;SDS011;65085;46.718;20.136;2022-12-18T12:20:58;39.35;;;18.67;;
76165;SDS011;65085;46.718;20.136;2022-12-18T12:24:12;42.97;;;19.73;;
76165;SDS011;65085;46.718;20.136;2022-12-18T12:27:27;43.08;;;19.70;;
76165;SDS011;65085;46.718;20.136;2022-12-18T12:30:42;43.30;;;19.58;;
76165;SDS011;65085;46.718;20.136;2022-12-18T12:33:56;44.80;;;20.23;;
76165;SDS011;65085;46.718;20.136;2022-12-18T12:37:14;52.72;;;24.92;;
76165;SDS011;65085;46.718;20.136;2022-12-18T12:40:26;48.97;;;20.13;;
76165;SDS011;65085;46.718;20.136;2022-12-18T12:43:51;44.28;;;18.35;;
76165;SDS011;65085;46.718;20.136;2022-12-18T12:46:59;45.08;;;19.95;;
76165;SDS011;65085;46.718;20.136;2022-12-18T12:50:12;46.90;;;20.13;;
76165;SDS011;65085;46.718;20.136;2022-12-18T12:53:23;47.25;;;20.52;;
76165;SDS011;65085;46.718;20.136;2022-12-18T12:56:34;46.67;;;18.33;;
76165;SDS011;65085;46.718;20.136;2022-12-18T12:59:45;48.22;;;18.45;;
76165;SDS011;65085;46.718;20.136;2022-12-18T13:02:56;47.85;;;18.67;;
76165;SDS011;65085;46.718;20.136;2022-12-18T13:06:08;45.10;;;18.27;;
76165;SDS011;65085;46.718;20.136;2022-12-18T13:09:17;44.10;;;18.33;;
76165;SDS011;65085;46.718;20.136;2022-12-18T13:12:19;45.97;;;16.87;;
76165;SDS011;65085;46.718;20.136;2022-12-18T13:15:41;41.90;;;18.00;;
76165;SDS011;65085;46.718;20.136;2022-12-18T13:18:48;49.38;;;19.52;;
76165;SDS011;65085;46.718;20.136;2022-12-18T13:21:53;38.40;;;16.30;;
76165;SDS011;65085;46.718;20.136;2022-12-18T13:24:58;43.55;;;17.00;;
76165;SDS011;65085;46.718;20.136;2022-12-18T13:28:04;42.60;;;17.40;;
76165;SDS011;65085;46.718;20.136;2022-12-18T13:31:08;40.85;;;16.05;;
76165;SDS011;65085;46.718;20.136;2022-12-18T13:34:14;43.33;;;16.02;;
76165;SDS011;65085;46.718;20.136;2022-12-18T13:37:39;52.60;;;21.20;;
76165;SDS011;65085;46.718;20.136;2022-12-18T13:40:56;39.20;;;15.25;;
76165;SDS011;65085;46.718;20.136;2022-12-18T13:44:10;37.13;;;14.63;;
76165;SDS011;65085;46.718;20.136;2022-12-18T13:47:24;38.53;;;15.77;;
76165;SDS011;65085;46.718;20.136;2022-12-18T13:50:30;42.70;;;16.83;;
76165;SDS011;65085;46.718;20.136;2022-12-18T13:53:38;51.10;;;19.63;;
76165;SDS011;65085;46.718;20.136;2022-12-18T13:56:48;50.72;;;20.38;;
76165;SDS011;65085;46.718;20.136;2022-12-18T13:59:52;55.87;;;23.57;;
76165;SDS011;65085;46.718;20.136;2022-12-18T14:02:55;41.42;;;16.88;;
76165;SDS011;65085;46.718;20.136;2022-12-18T14:05:59;43.72;;;16.85;;
76165;SDS011;65085;46.718;20.136;2022-12-18T14:09:04;48.28;;;21.77;;
76165;SDS011;65085;46.718;20.136;2022-12-18T14:12:16;61.55;;;22.17;;
76165;SDS011;65085;46.718;20.136;2022-12-18T14:15:42;54.60;;;22.77;;
76165;SDS011;65085;46.718;20.136;2022-12-18T14:18:52;59.90;;;24.52;;
76165;SDS011;65085;46.718;20.136;2022-12-18T14:22:03;65.53;;;23.92;;
76165;SDS011;65085;46.718;20.136;2022-12-18T14:25:16;83.50;;;28.85;;
76165;SDS011;65085;46.718;20.136;2022-12-18T14:28:22;66.95;;;25.60;;
76165;SDS011;65085;46.718;20.136;2022-12-18T14:31:27;65.47;;;23.97;;
76165;SDS011;65085;46.718;20.136;2022-12-18T14:34:31;71.22;;;25.65;;
76165;SDS011;65085;46.718;20.136;2022-12-18T14:37:34;58.97;;;21.73;;
76165;SDS011;65085;46.718;20.136;2022-12-18T14:40:36;49.53;;;19.75;;
76165;SDS011;65085;46.718;20.136;2022-12-18T14:43:41;115.63;;;33.75;;
76165;SDS011;65085;46.718;20.136;2022-12-18T14:46:45;91.03;;;31.10;;
76165;SDS011;65085;46.718;20.136;2022-12-18T14:49:49;90.60;;;32.28;;
76165;SDS011;65085;46.718;20.136;2022-12-18T14:52:52;91.22;;;34.58;;
76165;SDS011;65085;46.718;20.136;2022-12-18T14:55:55;98.55;;;36.67;;
76165;SDS011;65085;46.718;20.136;2022-12-18T14:59:00;100.10;;;35.03;;
76165;SDS011;65085;46.718;20.136;2022-12-18T15:02:08;108.13;;;36.90;;
76165;SDS011;65085;46.718;20.136;2022-12-18T15:05:19;105.75;;;36.90;;
76165;SDS011;65085;46.718;20.136;2022-12-18T15:08:31;97.53;;;37.30;;
76165;SDS011;65085;46.718;20.136;2022-12-18T15:11:44;113.55;;;41.60;;
76165;SDS011;65085;46.718;20.136;2022-12-18T15:14:49;109.30;;;42.72;;
76165;SDS011;65085;46.718;20.136;2022-12-18T15:18:01;120.37;;;47.93;;
76165;SDS011;65085;46.718;20.136;2022-12-18T15:21:07;134.95;;;51.92;;
76165;SDS011;65085;46.718;20.136;2022-12-18T15:24:15;130.48;;;48.88;;
76165;SDS011;65085;46.718;20.136;2022-12-18T15:27:21;152.70;;;54.58;;
76165;SDS011;65085;46.718;20.136;2022-12-18T15:30:28;147.55;;;55.22;;
76165;SDS011;65085;46.718;20.136;2022-12-18T15:33:31;164.90;;;58.77;;
76165;SDS011;65085;46.718;20.136;2022-12-18T15:36:36;174.63;;;60.15;;
76165;SDS011;65085;46.718;20.136;2022-12-18T15:39:38;161.60;;;55.50;;
76165;SDS011;65085;46.718;20.136;2022-12-18T15:42:41;153.80;;;55.45;;
76165;SDS011;65085;46.718;20.136;2022-12-18T15:46:05;149.43;;;52.63;;
76165;SDS011;65085;46.718;20.136;2022-12-18T15:49:30;132.93;;;48.83;;
76165;SDS011;65085;46.718;20.136;2022-12-18T15:52:35;162.63;;;53.85;;
76165;SDS011;65085;46.718;20.136;2022-12-18T15:55:43;132.90;;;48.78;;
76165;SDS011;65085;46.718;20.136;2022-12-18T15:59:08;155.32;;;53.80;;
76165;SDS011;65085;46.718;20.136;2022-12-18T16:02:15;163.18;;;55.17;;
76165;SDS011;65085;46.718;20.136;2022-12-18T16:05:24;163.87;;;56.57;;
76165;SDS011;65085;46.718;20.136;2022-12-18T16:08:28;170.27;;;58.95;;
76165;SDS011;65085;46.718;20.136;2022-12-18T16:11:32;183.27;;;62.67;;
76165;SDS011;65085;46.718;20.136;2022-12-18T16:14:41;161.75;;;57.55;;
76165;SDS011;65085;46.718;20.136;2022-12-18T16:17:45;177.73;;;62.53;;
76165;SDS011;65085;46.718;20.136;2022-12-18T16:20:49;170.10;;;55.37;;
76165;SDS011;65085;46.718;20.136;2022-12-18T16:23:52;169.13;;;56.25;;
76165;SDS011;65085;46.718;20.136;2022-12-18T16:26:55;169.38;;;57.58;;
76165;SDS011;65085;46.718;20.136;2022-12-18T16:29:59;175.30;;;61.15;;
76165;SDS011;65085;46.718;20.136;2022-12-18T16:33:04;189.75;;;68.28;;
76165;SDS011;65085;46.718;20.136;2022-12-18T16:36:08;183.67;;;67.10;;
76165;SDS011;65085;46.718;20.136;2022-12-18T16:39:11;199.18;;;73.45;;
76165;SDS011;65085;46.718;20.136;2022-12-18T16:42:15;220.70;;;79.80;;
76165;SDS011;65085;46.718;20.136;2022-12-18T16:45:21;246.68;;;90.63;;
76165;SDS011;65085;46.718;20.136;2022-12-18T16:48:28;333.77;;;122.30;;
76165;SDS011;65085;46.718;20.136;2022-12-18T16:51:35;258.63;;;92.77;;
76165;SDS011;65085;46.718;20.136;2022-12-18T16:54:38;228.90;;;83.63;;
76165;SDS011;65085;46.718;20.136;2022-12-18T16:57:41;215.43;;;77.95;;
76165;SDS011;65085;46.718;20.136;2022-12-18T17:00:44;225.43;;;81.85;;
76165;SDS011;65085;46.718;20.136;2022-12-18T17:03:53;230.98;;;84.80;;
76165;SDS011;65085;46.718;20.136;2022-12-18T17:06:57;222.97;;;77.77;;
76165;SDS011;65085;46.718;20.136;2022-12-18T17:10:00;217.52;;;78.38;;
76165;SDS011;65085;46.718;20.136;2022-12-18T17:13:03;229.50;;;78.35;;
76165;SDS011;65085;46.718;20.136;2022-12-18T17:16:06;235.70;;;84.00;;
76165;SDS011;65085;46.718;20.136;2022-12-18T17:19:11;223.32;;;79.28;;
76165;SDS011;65085;46.718;20.136;2022-12-18T17:22:18;226.43;;;83.33;;
76165;SDS011;65085;46.718;20.136;2022-12-18T17:25:22;234.18;;;86.40;;
76165;SDS011;65085;46.718;20.136;2022-12-18T17:28:26;256.88;;;92.93;;
76165;SDS011;65085;46.718;20.136;2022-12-18T17:31:29;243.18;;;91.53;;
76165;SDS011;65085;46.718;20.136;2022-12-18T17:34:34;248.32;;;93.28;;
76165;SDS011;65085;46.718;20.136;2022-12-18T17:37:38;243.83;;;93.13;;
76165;SDS011;65085;46.718;20.136;2022-12-18T17:40:41;239.55;;;88.82;;
76165;SDS011;65085;46.718;20.136;2022-12-18T17:43:49;245.73;;;91.00;;
76165;SDS011;65085;46.718;20.136;2022-12-18T17:46:53;256.90;;;92.28;;
76165;SDS011;65085;46.718;20.136;2022-12-18T17:49:57;263.45;;;96.35;;
76165;SDS011;65085;46.718;20.136;2022-12-18T17:53:00;271.53;;;97.17;;
76165;SDS011;65085;46.718;20.136;2022-12-18T17:56:04;252.32;;;92.35;;
76165;SDS011;65085;46.718;20.136;2022-12-18T17:59:09;251.77;;;91.10;;